createdAt,value
2019-01-04T00:00:13.571Z,67.08
2019-01-04T00:01:13.567Z,67.55
2019-01-04T00:02:13.569Z,68.50
2019-01-04T00:03:13.570Z,69.25
2019-01-04T00:04:13.575Z,70.57
2019-01-04T00:05:13.574Z,70.86
2019-01-04T00:06:13.574Z,71.14
2019-01-04T00:07:13.580Z,70.19
2019-01-04T00:08:13.576Z,69.91
2019-01-04T00:09:13.574Z,69.91
2019-01-04T00:10:13.575Z,69.82
2019-01-04T00:11:13.577Z,69.82
2019-01-04T00:12:13.579Z,69.06
2019-01-04T00:13:13.578Z,68.31
2019-01-04T00:14:13.578Z,67.84
2019-01-04T00:15:13.581Z,68.12
2019-01-04T00:16:13.581Z,67.74
2019-01-04T00:17:13.584Z,67.65
2019-01-04T00:18:13.583Z,67.93
2019-01-04T00:19:13.586Z,68.87
2019-01-04T00:20:13.586Z,68.87
2019-01-04T00:21:13.589Z,70.01
2019-01-04T00:22:13.587Z,69.82
2019-01-04T00:23:13.590Z,68.59
2019-01-04T00:24:13.590Z,67.55
2019-01-04T00:25:13.592Z,66.80
2019-01-04T00:26:13.592Z,65.99
2019-01-04T00:27:13.595Z,65.42
2019-01-04T00:28:13.594Z,65.52
2019-01-04T00:29:13.595Z,65.99
2019-01-04T00:30:13.596Z,67.30
2019-01-04T00:31:13.597Z,67.40
2019-01-04T00:32:13.598Z,68.44
2019-01-04T00:33:13.600Z,68.40
2019-01-04T00:34:13.599Z,68.12
2019-01-04T00:35:13.600Z,67.49
2019-01-04T00:36:13.604Z,67.59
2019-01-04T00:37:13.603Z,67.08
2019-01-04T00:38:13.602Z,67.21
2019-01-04T00:39:13.606Z,67.18
2019-01-04T00:40:13.607Z,66.71
2019-01-04T00:41:13.607Z,66.71
2019-01-04T00:42:13.607Z,67.84
2019-01-04T00:43:13.609Z,68.21
2019-01-04T00:44:13.613Z,67.84
2019-01-04T00:45:13.610Z,66.99
2019-01-04T00:46:13.610Z,65.95
2019-01-04T00:47:13.618Z,65.20
2019-01-04T00:48:13.620Z,65.20
2019-01-04T00:49:13.613Z,66.99
2019-01-04T00:50:13.620Z,68.40
2019-01-04T00:51:13.616Z,68.21
2019-01-04T00:52:13.620Z,67.36
2019-01-04T00:53:13.619Z,66.42
2019-01-04T00:54:13.621Z,67.08
2019-01-04T00:55:13.621Z,68.21
2019-01-04T00:56:13.622Z,69.63
2019-01-04T00:57:13.620Z,70.01
2019-01-04T00:58:13.622Z,70.10
2019-01-04T00:59:13.621Z,70.19
2019-01-04T01:00:13.623Z,70.95
2019-01-04T01:01:13.623Z,71.80
2019-01-04T01:02:13.623Z,72.55
2019-01-04T01:03:13.625Z,71.42
2019-01-04T01:04:13.627Z,71.23
2019-01-04T01:05:13.626Z,70.57
2019-01-04T01:06:13.625Z,70.01
2019-01-04T01:07:13.627Z,69.91
2019-01-04T01:08:13.628Z,68.68
2019-01-04T01:09:13.629Z,67.55
2019-01-04T01:10:13.630Z,66.99
2019-01-04T01:11:13.632Z,65.86
2019-01-04T01:12:13.632Z,66.61
2019-01-04T01:13:13.631Z,67.65
2019-01-04T01:14:13.633Z,68.59
2019-01-04T01:15:13.637Z,69.82
2019-01-04T01:16:13.633Z,70.10
2019-01-04T01:17:13.633Z,69.91
2019-01-04T01:18:13.639Z,70.19
2019-01-04T01:19:13.636Z,70.01
2019-01-04T01:20:13.638Z,71.14
2019-01-04T01:21:13.646Z,71.04
2019-01-04T01:22:13.639Z,71.04
2019-01-04T01:23:13.637Z,70.57
2019-01-04T01:24:13.639Z,70.19
2019-01-04T01:25:13.641Z,70.19
2019-01-04T01:26:13.640Z,70.57
2019-01-04T01:27:13.642Z,70.01
2019-01-04T01:28:13.643Z,70.19
2019-01-04T01:29:13.642Z,69.72
2019-01-04T01:30:13.642Z,69.91
2019-01-04T01:31:13.645Z,70.01
2019-01-04T01:32:13.644Z,70.19
2019-01-04T01:33:13.644Z,70.29
2019-01-04T01:34:13.647Z,69.91
2019-01-04T01:35:13.647Z,69.72
2019-01-04T01:36:13.647Z,69.72
2019-01-04T01:37:13.647Z,69.72
2019-01-04T01:38:13.648Z,69.53
2019-01-04T01:39:13.651Z,69.25
2019-01-04T01:40:13.652Z,69.06
2019-01-04T01:41:13.652Z,68.87
2019-01-04T01:42:13.650Z,69.16
2019-01-04T01:43:13.653Z,68.97
2019-01-04T01:44:13.656Z,68.40
2019-01-04T01:45:13.653Z,68.12
2019-01-04T01:46:13.652Z,68.31
2019-01-04T01:47:13.655Z,68.78
2019-01-04T01:48:13.655Z,69.06
2019-01-04T01:49:13.658Z,69.25
2019-01-04T01:50:13.662Z,69.72
2019-01-04T01:51:13.657Z,70.01
2019-01-04T01:52:13.658Z,69.53
2019-01-04T01:53:13.658Z,69.72
2019-01-04T01:54:13.659Z,70.29
2019-01-04T01:55:13.661Z,69.82
2019-01-04T01:56:13.662Z,70.10
2019-01-04T01:57:13.663Z,70.19
2019-01-04T01:58:13.662Z,70.10
2019-01-04T01:59:13.662Z,70.38
2019-01-04T02:00:13.664Z,69.91
2019-01-04T02:01:13.667Z,69.82
2019-01-04T02:02:13.664Z,69.63
2019-01-04T02:03:13.663Z,69.53
2019-01-04T02:04:13.666Z,68.78
2019-01-04T02:05:13.669Z,67.65
2019-01-04T02:06:13.667Z,67.27
2019-01-04T02:07:13.664Z,67.27
2019-01-04T02:08:13.674Z,67.93
2019-01-04T02:09:13.668Z,68.31
2019-01-04T02:10:13.678Z,68.78
2019-01-04T02:11:13.669Z,68.59
2019-01-04T02:12:13.669Z,67.84
2019-01-04T02:13:13.669Z,67.27
2019-01-04T02:14:13.670Z,67.36
2019-01-04T02:15:13.671Z,67.74
2019-01-04T02:16:13.671Z,68.02
2019-01-04T02:17:13.675Z,68.78
2019-01-04T02:18:13.673Z,68.78
2019-01-04T02:19:13.674Z,67.93
2019-01-04T02:20:13.676Z,66.24
2019-01-04T02:21:13.674Z,65.67
2019-01-04T02:22:13.677Z,66.24
2019-01-04T02:23:13.678Z,66.61
2019-01-04T02:24:13.679Z,66.05
2019-01-04T02:25:13.678Z,65.77
2019-01-04T02:26:13.677Z,66.99
2019-01-04T02:27:13.678Z,67.55
2019-01-04T02:28:13.678Z,68.87
2019-01-04T02:29:13.684Z,69.82
2019-01-04T02:30:13.683Z,72.45
2019-01-04T02:31:13.682Z,71.14
2019-01-04T02:32:13.683Z,71.04
2019-01-04T02:33:13.680Z,68.97
2019-01-04T02:34:13.687Z,69.16
2019-01-04T02:35:13.684Z,70.10
2019-01-04T02:36:13.686Z,69.91
2019-01-04T02:37:13.685Z,69.72
2019-01-04T02:38:13.686Z,69.06
2019-01-04T02:39:13.687Z,67.36
2019-01-04T02:40:13.689Z,67.27
2019-01-04T02:41:13.691Z,67.55
2019-01-04T02:42:13.687Z,68.78
2019-01-04T02:43:13.690Z,70.19
2019-01-04T02:44:13.688Z,71.89
2019-01-04T02:45:13.691Z,73.39
2019-01-04T02:46:13.737Z,73.68
2019-01-04T02:47:13.692Z,73.58
2019-01-04T02:48:13.690Z,73.58
2019-01-04T02:49:13.689Z,73.77
2019-01-04T02:50:13.691Z,73.77
2019-01-04T02:51:13.692Z,73.96
2019-01-04T02:52:13.692Z,73.49
2019-01-04T02:53:13.693Z,72.74
2019-01-04T02:54:13.692Z,72.92
2019-01-04T02:55:13.694Z,73.39
2019-01-04T02:56:13.693Z,73.87
2019-01-04T02:57:13.692Z,74.62
2019-01-04T02:58:13.694Z,75.38
2019-01-04T02:59:13.696Z,75.47
2019-01-04T03:00:13.696Z,75.09
2019-01-04T03:01:13.698Z,74.34
2019-01-04T03:02:13.696Z,74.43
2019-01-04T03:03:13.696Z,74.62
2019-01-04T03:04:13.697Z,74.34
2019-01-04T03:05:13.703Z,74.90
2019-01-04T03:06:13.697Z,74.81
2019-01-04T03:07:13.698Z,74.81
2019-01-04T03:08:13.700Z,74.62
2019-01-04T03:09:13.700Z,73.30
2019-01-04T03:10:13.698Z,72.64
2019-01-04T03:11:13.702Z,72.64
2019-01-04T03:12:13.701Z,72.27
2019-01-04T03:13:13.698Z,71.42
2019-01-04T03:14:13.701Z,71.61
2019-01-04T03:15:13.704Z,72.17
2019-01-04T03:16:13.702Z,72.17
2019-01-04T03:17:13.700Z,72.64
2019-01-04T03:18:13.703Z,72.74
2019-01-04T03:19:13.706Z,72.92
2019-01-04T03:20:13.703Z,72.55
2019-01-04T03:21:13.702Z,72.45
2019-01-04T03:22:13.704Z,72.74
2019-01-04T03:23:13.707Z,72.17
2019-01-04T03:24:13.704Z,71.61
2019-01-04T03:25:13.703Z,71.42
2019-01-04T03:26:13.705Z,70.57
2019-01-04T03:27:13.704Z,71.14
2019-01-04T03:28:13.706Z,71.80
2019-01-04T03:29:13.707Z,71.33
2019-01-04T03:30:13.707Z,71.70
2019-01-04T03:31:13.714Z,70.86
2019-01-04T03:32:13.717Z,70.38
2019-01-04T03:33:13.720Z,71.04
2019-01-04T03:34:13.710Z,72.27
2019-01-04T03:35:13.710Z,73.30
2019-01-04T03:36:13.708Z,73.68
2019-01-04T03:37:13.708Z,74.43
2019-01-04T03:38:13.713Z,74.53
2019-01-04T03:39:13.711Z,74.81
2019-01-04T03:40:13.711Z,74.62
2019-01-04T03:41:13.714Z,74.24
2019-01-04T03:42:13.714Z,73.68
2019-01-04T03:43:13.721Z,72.92
2019-01-04T03:44:13.715Z,72.64
2019-01-04T03:45:13.714Z,73.68
2019-01-04T03:46:13.716Z,74.53
2019-01-04T03:47:13.717Z,74.90
2019-01-04T03:48:13.717Z,75.85
2019-01-04T03:49:13.715Z,75.56
2019-01-04T03:50:13.716Z,74.81
2019-01-04T03:51:13.715Z,74.15
2019-01-04T03:52:13.718Z,74.24
2019-01-04T03:53:13.718Z,74.90
2019-01-04T03:54:13.717Z,74.90
2019-01-04T03:55:13.716Z,75.94
2019-01-04T03:56:13.719Z,76.22
2019-01-04T03:57:13.742Z,76.22
2019-01-04T03:58:13.721Z,75.47
2019-01-04T03:59:13.719Z,75.19
2019-01-04T04:00:13.719Z,75.00
2019-01-04T04:01:13.718Z,74.62
2019-01-04T04:02:13.720Z,74.62
2019-01-04T04:03:13.720Z,74.62
2019-01-04T04:04:13.774Z,75.47
2019-01-04T04:05:13.722Z,76.13
2019-01-04T04:06:13.720Z,77.17
2019-01-04T04:07:13.722Z,78.02
2019-01-04T04:08:13.726Z,77.92
2019-01-04T04:09:13.735Z,77.73
2019-01-04T04:10:13.723Z,75.75
2019-01-04T04:11:13.722Z,73.58
2019-01-04T04:12:13.722Z,72.55
2019-01-04T04:13:13.723Z,70.67
2019-01-04T04:14:13.723Z,67.74
2019-01-04T04:15:13.722Z,68.02
2019-01-04T04:16:13.726Z,69.35
2019-01-04T04:17:13.723Z,69.82
2019-01-04T04:18:13.725Z,70.01
2019-01-04T04:19:13.725Z,70.19
2019-01-04T04:20:13.729Z,70.67
2019-01-04T04:21:13.724Z,71.14
2019-01-04T04:22:13.726Z,71.61
2019-01-04T04:23:13.807Z,71.98
2019-01-04T04:24:13.777Z,72.74
2019-01-04T04:25:13.804Z,72.45
2019-01-04T04:26:13.785Z,70.10
2019-01-04T04:27:13.766Z,69.25
2019-01-04T04:28:13.741Z,68.12
2019-01-04T04:29:13.724Z,67.74
2019-01-04T04:30:13.756Z,66.99
2019-01-04T04:31:13.727Z,66.89
2019-01-04T04:32:13.733Z,67.74
2019-01-04T04:33:13.728Z,68.68
2019-01-04T04:34:13.729Z,69.35
2019-01-04T04:35:13.727Z,70.29
2019-01-04T04:36:13.729Z,70.38
2019-01-04T04:37:13.730Z,70.29
2019-01-04T04:38:13.728Z,71.70
2019-01-04T04:39:13.730Z,73.02
2019-01-04T04:40:13.729Z,73.96
2019-01-04T04:41:13.728Z,74.24
2019-01-04T04:42:13.732Z,74.34
2019-01-04T04:43:13.731Z,72.17
2019-01-04T04:44:13.731Z,70.38
2019-01-04T04:45:13.730Z,68.87
2019-01-04T04:46:13.729Z,68.59
2019-01-04T04:47:13.731Z,70.01
2019-01-04T04:48:13.791Z,70.38
2019-01-04T04:49:13.796Z,68.78
2019-01-04T04:50:13.792Z,67.74
2019-01-04T04:51:13.781Z,68.12
2019-01-04T04:52:13.764Z,69.16
2019-01-04T04:53:13.733Z,69.35
2019-01-04T04:54:13.790Z,69.91
2019-01-04T04:55:13.769Z,69.72
2019-01-04T04:56:13.744Z,69.72
2019-01-04T04:57:13.759Z,69.06
2019-01-04T04:58:13.794Z,68.40
2019-01-04T04:59:13.789Z,67.65
2019-01-04T05:00:13.738Z,68.12
2019-01-04T05:01:13.745Z,68.40
2019-01-04T05:02:13.799Z,69.06
2019-01-04T05:03:13.747Z,69.44
2019-01-04T05:04:13.766Z,69.16
2019-01-04T05:05:13.735Z,67.65
2019-01-04T05:06:13.737Z,66.89
2019-01-04T05:07:13.814Z,65.95
2019-01-04T05:08:13.812Z,65.39
2019-01-04T05:09:13.796Z,65.86
2019-01-04T05:10:13.744Z,66.05
2019-01-04T05:11:13.798Z,65.95
2019-01-04T05:12:13.812Z,65.67
2019-01-04T05:13:13.820Z,65.86
2019-01-04T05:14:13.807Z,66.24
2019-01-04T05:15:13.789Z,65.95
2019-01-04T05:16:13.765Z,65.11
2019-01-04T05:17:13.804Z,64.73
2019-01-04T05:18:13.831Z,65.11
2019-01-04T05:19:13.787Z,65.11
2019-01-04T05:20:13.745Z,65.05
2019-01-04T05:21:13.767Z,65.01
2019-01-04T05:22:13.810Z,64.73
2019-01-04T05:23:13.760Z,64.58
2019-01-04T05:24:13.801Z,64.07
2019-01-04T05:25:13.796Z,63.69
2019-01-04T05:26:13.749Z,63.35
2019-01-04T05:27:13.814Z,63.25
2019-01-04T05:28:13.774Z,62.12
2019-01-04T05:29:13.745Z,62.03
2019-01-04T05:30:13.748Z,61.55
2019-01-04T05:31:13.748Z,61.46
2019-01-04T05:32:13.750Z,61.65
2019-01-04T05:33:13.749Z,61.84
2019-01-04T05:34:13.760Z,62.40
2019-01-04T05:35:13.755Z,62.59
2019-01-04T05:36:13.753Z,62.69
2019-01-04T05:37:13.751Z,62.40
2019-01-04T05:38:13.753Z,61.84
2019-01-04T05:39:13.757Z,62.40
2019-01-04T05:40:14.119Z,63.06
2019-01-04T05:41:13.759Z,62.59
2019-01-04T05:42:13.761Z,62.50
2019-01-04T05:43:13.758Z,62.50
2019-01-04T05:44:13.759Z,62.50
2019-01-04T05:45:13.759Z,62.50
2019-01-04T05:46:13.761Z,62.59
2019-01-04T05:47:13.762Z,62.97
2019-01-04T05:48:13.761Z,62.40
2019-01-04T05:49:13.762Z,62.50
2019-01-04T05:50:13.763Z,62.03
2019-01-04T05:51:13.766Z,61.36
2019-01-04T05:52:13.766Z,62.03
2019-01-04T05:53:13.767Z,62.50
2019-01-04T05:54:13.769Z,63.35
2019-01-04T05:55:13.770Z,62.97
2019-01-04T05:56:13.769Z,63.25
2019-01-04T05:57:13.771Z,62.78
2019-01-04T05:58:13.773Z,62.31
2019-01-04T05:59:13.771Z,62.50
2019-01-04T06:00:13.775Z,63.25
2019-01-04T06:01:13.775Z,64.48
2019-01-04T06:02:13.780Z,65.30
2019-01-04T06:03:13.777Z,65.70
2019-01-04T06:04:13.777Z,65.14
2019-01-04T06:05:13.779Z,64.48
2019-01-04T06:06:13.780Z,64.07
2019-01-04T06:07:13.780Z,63.54
2019-01-04T06:08:13.782Z,63.25
2019-01-04T06:09:13.780Z,63.63
2019-01-04T06:10:13.784Z,63.54
2019-01-04T06:11:13.788Z,64.01
2019-01-04T06:12:13.784Z,64.48
2019-01-04T06:13:13.790Z,64.58
2019-01-04T06:14:13.787Z,64.20
2019-01-04T06:15:13.789Z,64.67
2019-01-04T06:16:13.788Z,64.01
2019-01-04T06:17:13.792Z,63.06
2019-01-04T06:18:13.789Z,62.88
2019-01-04T06:19:13.798Z,61.93
2019-01-04T06:20:13.797Z,61.46
2019-01-04T06:21:13.792Z,60.89
2019-01-04T06:22:13.793Z,61.08
2019-01-04T06:23:13.794Z,60.80
2019-01-04T06:24:13.798Z,60.99
2019-01-04T06:25:13.806Z,61.08
2019-01-04T06:26:13.797Z,60.89
2019-01-04T06:27:13.801Z,59.86
2019-01-04T06:28:13.802Z,60.24
2019-01-04T06:29:13.801Z,59.95
2019-01-04T06:30:13.804Z,59.86
2019-01-04T06:31:13.803Z,59.86
2019-01-04T06:32:13.807Z,60.33
2019-01-04T06:33:13.808Z,59.39
2019-01-04T06:34:13.807Z,59.48
2019-01-04T06:35:13.812Z,59.95
2019-01-04T06:36:13.812Z,60.89
2019-01-04T06:37:13.812Z,60.61
2019-01-04T06:38:13.811Z,60.71
2019-01-04T06:39:13.813Z,59.95
2019-01-04T06:40:13.814Z,60.33
2019-01-04T06:41:13.815Z,59.77
2019-01-04T06:42:13.817Z,59.77
2019-01-04T06:43:13.819Z,59.86
2019-01-04T06:44:13.820Z,60.05
2019-01-04T06:45:13.822Z,59.30
2019-01-04T06:46:13.823Z,58.45
2019-01-04T06:47:13.827Z,58.54
2019-01-04T06:48:13.826Z,57.88
2019-01-04T06:49:13.837Z,58.54
2019-01-04T06:50:13.828Z,58.82
2019-01-04T06:51:13.829Z,59.01
2019-01-04T06:52:13.835Z,58.82
2019-01-04T06:53:13.831Z,58.92
2019-01-04T06:54:13.834Z,59.11
2019-01-04T06:55:13.835Z,59.11
2019-01-04T06:56:13.836Z,59.58
2019-01-04T06:57:13.837Z,60.05
2019-01-04T06:58:13.842Z,60.89
2019-01-04T06:59:13.840Z,60.61
2019-01-04T07:00:13.845Z,60.52
2019-01-04T07:01:13.844Z,60.42
2019-01-04T07:02:13.846Z,60.71
2019-01-04T07:03:13.847Z,60.89
2019-01-04T07:04:13.848Z,60.80
2019-01-04T07:05:13.852Z,61.08
2019-01-04T07:06:13.852Z,60.89
2019-01-04T07:07:13.854Z,60.89
2019-01-04T07:08:13.855Z,61.08
2019-01-04T07:09:13.856Z,60.80
2019-01-04T07:10:13.858Z,60.99
2019-01-04T07:11:13.860Z,61.46
2019-01-04T07:12:13.860Z,61.55
2019-01-04T07:13:13.862Z,61.74
2019-01-04T07:14:13.864Z,61.46
2019-01-04T07:15:13.863Z,62.69
2019-01-04T07:16:13.876Z,63.63
2019-01-04T07:17:14.043Z,64.76
2019-01-04T07:18:13.869Z,64.48
2019-01-04T07:19:13.873Z,62.78
2019-01-04T07:20:13.872Z,60.99
2019-01-04T07:21:13.879Z,60.99
2019-01-04T07:22:13.875Z,60.71
2019-01-04T07:23:13.899Z,60.24
2019-01-04T07:24:13.882Z,59.39
2019-01-04T07:25:13.887Z,59.39
2019-01-04T07:26:13.941Z,59.30
2019-01-04T07:27:13.884Z,59.86
2019-01-04T07:28:13.887Z,59.86
2019-01-04T07:29:13.907Z,60.80
2019-01-04T07:30:13.912Z,61.27
2019-01-04T07:31:13.941Z,61.65
2019-01-04T07:32:13.914Z,60.89
2019-01-04T07:33:13.940Z,60.05
2019-01-04T07:34:13.899Z,59.20
2019-01-04T07:35:13.957Z,58.63
2019-01-04T07:36:13.912Z,59.11
2019-01-04T07:37:13.950Z,59.30
2019-01-04T07:38:13.902Z,59.39
2019-01-04T07:39:13.914Z,59.30
2019-01-04T07:40:13.943Z,59.77
2019-01-04T07:41:13.938Z,59.86
2019-01-04T07:42:13.927Z,60.61
2019-01-04T07:43:16.617Z,60.71
2019-01-04T07:44:13.912Z,60.71
2019-01-04T07:45:13.927Z,61.08
2019-01-04T07:46:13.968Z,61.27
2019-01-04T07:47:13.946Z,62.31
2019-01-04T07:48:13.954Z,62.59
2019-01-04T07:49:13.926Z,63.06
2019-01-04T07:50:13.920Z,63.25
2019-01-04T07:51:13.968Z,63.73
2019-01-04T07:52:13.971Z,63.54
2019-01-04T07:53:13.931Z,63.35
2019-01-04T07:54:13.948Z,62.03
2019-01-04T07:55:13.991Z,60.05
2019-01-04T07:56:13.933Z,58.92
2019-01-04T07:57:13.954Z,59.11
2019-01-04T07:58:13.962Z,59.58
2019-01-04T07:59:13.966Z,59.39
2019-01-04T08:00:13.988Z,58.82
2019-01-04T08:01:13.950Z,57.78
2019-01-04T08:02:13.990Z,57.60
2019-01-04T08:03:13.947Z,59.01
2019-01-04T08:04:13.993Z,60.14
2019-01-04T08:05:13.984Z,60.52
2019-01-04T08:06:14.006Z,60.24
2019-01-04T08:07:14.002Z,58.73
2019-01-04T08:08:13.990Z,59.20
2019-01-04T08:09:13.949Z,60.33
2019-01-04T08:10:13.967Z,61.08
2019-01-04T08:11:13.972Z,61.55
2019-01-04T08:12:14.005Z,61.65
2019-01-04T08:13:13.962Z,61.36
2019-01-04T08:14:13.970Z,60.71
2019-01-04T08:15:13.958Z,61.18
2019-01-04T08:16:14.046Z,62.31
2019-01-04T08:17:14.013Z,62.97
2019-01-04T08:18:13.972Z,63.06
2019-01-04T08:19:14.069Z,63.35
2019-01-04T08:20:14.043Z,63.82
2019-01-04T08:21:14.045Z,63.91
2019-01-04T08:22:14.032Z,64.20
2019-01-04T08:23:13.999Z,63.82
2019-01-04T08:24:14.056Z,63.82
2019-01-04T08:25:14.052Z,63.63
2019-01-04T08:26:14.068Z,63.63
2019-01-04T08:27:14.038Z,64.48
2019-01-04T08:28:14.081Z,64.58
2019-01-04T08:29:14.052Z,64.39
2019-01-04T08:30:14.049Z,63.73
2019-01-04T08:31:14.062Z,63.25
2019-01-04T08:32:14.000Z,63.35
2019-01-04T08:33:14.035Z,63.54
2019-01-04T08:34:14.074Z,64.20
2019-01-04T08:35:14.075Z,64.58
2019-01-04T08:36:13.995Z,64.86
2019-01-04T08:37:14.087Z,64.76
2019-01-04T08:38:14.067Z,64.29
2019-01-04T08:39:14.067Z,64.10
2019-01-04T08:40:14.091Z,63.54
2019-01-04T08:41:14.092Z,63.63
2019-01-04T08:42:14.100Z,63.63
2019-01-04T08:43:14.069Z,63.54
2019-01-04T08:44:14.073Z,64.29
2019-01-04T08:45:14.054Z,63.35
2019-01-04T08:46:14.007Z,63.10
2019-01-04T08:47:14.013Z,63.10
2019-01-04T08:48:14.018Z,62.25
2019-01-04T08:49:14.015Z,61.68
2019-01-04T08:50:14.016Z,60.46
2019-01-04T08:51:14.021Z,60.83
2019-01-04T08:52:14.017Z,60.08
2019-01-04T08:53:14.023Z,58.47
2019-01-04T08:54:14.026Z,57.25
2019-01-04T08:55:14.027Z,57.15
2019-01-04T08:56:14.027Z,57.75
2019-01-04T08:57:14.031Z,60.11
2019-01-04T08:58:14.035Z,61.61
2019-01-04T08:59:14.037Z,61.71
2019-01-04T09:00:14.040Z,60.96
2019-01-04T09:01:14.047Z,60.86
2019-01-04T09:02:14.048Z,62.09
2019-01-04T09:03:14.044Z,62.28
2019-01-04T09:04:14.049Z,65.01
2019-01-04T09:05:14.050Z,65.30
2019-01-04T09:06:14.061Z,64.17
2019-01-04T09:07:14.060Z,64.45
2019-01-04T09:08:14.064Z,64.95
2019-01-04T09:09:14.175Z,62.37
2019-01-04T09:10:14.065Z,62.75
2019-01-04T09:11:14.070Z,63.03
2019-01-04T09:12:14.082Z,61.90
2019-01-04T09:13:14.076Z,61.18
2019-01-04T09:14:14.081Z,61.84
2019-01-04T09:15:14.085Z,60.05
2019-01-04T09:16:14.085Z,58.63
2019-01-04T09:17:14.089Z,57.65
2019-01-04T09:18:14.094Z,58.63
2019-01-04T09:19:14.095Z,59.57
2019-01-04T09:20:14.100Z,60.80
2019-01-04T09:21:14.102Z,60.61
2019-01-04T09:22:14.107Z,59.29
2019-01-04T09:23:14.111Z,59.95
2019-01-04T09:24:14.129Z,58.72
2019-01-04T09:25:14.115Z,56.65
2019-01-04T09:26:14.122Z,56.17
2019-01-04T09:27:14.125Z,56.74
2019-01-04T09:28:18.047Z,58.63
2019-01-04T09:29:14.131Z,57.78
2019-01-04T09:30:14.137Z,58.44
2019-01-04T09:31:14.138Z,58.53
2019-01-04T09:32:14.142Z,56.17
2019-01-04T09:33:14.144Z,55.04
2019-01-04T09:34:14.146Z,56.27
2019-01-04T09:35:14.153Z,58.82
2019-01-04T09:36:14.154Z,59.95
2019-01-04T09:37:14.157Z,59.26
2019-01-04T09:38:14.163Z,60.68
2019-01-04T09:39:14.164Z,61.71
2019-01-04T09:40:14.174Z,62.59
2019-01-04T09:41:14.171Z,62.12
2019-01-04T09:42:14.176Z,61.65
2019-01-04T09:43:14.181Z,59.29
2019-01-04T09:44:14.185Z,59.95
2019-01-04T09:45:14.188Z,61.08
2019-01-04T09:46:14.190Z,60.42
2019-01-04T09:47:14.196Z,60.61
2019-01-04T09:48:14.198Z,60.55
2019-01-04T09:49:14.203Z,59.60
2019-01-04T09:50:14.204Z,60.27
2019-01-04T09:51:14.214Z,58.65
2019-01-04T09:52:14.216Z,58.18
2019-01-04T09:53:14.216Z,58.00
2019-01-04T09:54:14.220Z,58.56
2019-01-04T09:55:14.227Z,58.37
2019-01-04T09:56:14.230Z,58.03
2019-01-04T09:57:14.233Z,56.89
2019-01-04T09:58:14.238Z,56.51
2019-01-04T09:59:14.244Z,55.94
2019-01-04T10:00:14.249Z,56.23
2019-01-04T10:01:14.252Z,54.53
2019-01-04T10:02:14.256Z,54.72
2019-01-04T10:03:14.268Z,54.91
2019-01-04T10:04:14.264Z,55.10
2019-01-04T10:05:14.270Z,55.19
2019-01-04T10:06:14.273Z,54.55
2019-01-04T10:07:14.277Z,53.89
2019-01-04T10:08:14.287Z,52.86
2019-01-04T10:09:14.293Z,52.17
2019-01-04T10:10:14.293Z,52.64
2019-01-04T10:11:14.298Z,52.64
2019-01-04T10:12:14.310Z,51.69
2019-01-04T10:13:14.310Z,52.36
2019-01-04T10:14:14.311Z,52.55
2019-01-04T10:15:14.325Z,53.46
2019-01-04T10:16:14.324Z,53.87
2019-01-04T10:17:14.328Z,54.44
2019-01-04T10:18:14.335Z,54.37
2019-01-04T10:19:14.340Z,53.61
2019-01-04T10:20:14.346Z,53.14
2019-01-04T10:21:14.350Z,51.06
2019-01-04T10:22:14.357Z,50.49
2019-01-04T10:23:14.362Z,51.43
2019-01-04T10:24:14.367Z,51.75
2019-01-04T10:25:14.374Z,51.93
2019-01-04T10:26:14.378Z,50.23
2019-01-04T10:27:14.386Z,49.35
2019-01-04T10:28:14.390Z,49.16
2019-01-04T10:29:14.396Z,50.21
2019-01-04T10:30:14.405Z,50.18
2019-01-04T10:31:14.412Z,50.18
2019-01-04T10:32:14.418Z,51.79
2019-01-04T10:33:14.422Z,52.10
2019-01-04T10:34:14.431Z,51.46
2019-01-04T10:35:14.438Z,50.26
2019-01-04T10:36:14.445Z,48.18
2019-01-04T10:37:14.447Z,46.61
2019-01-04T10:38:14.457Z,48.50
2019-01-04T10:39:14.462Z,49.92
2019-01-04T10:40:14.469Z,49.48
2019-01-04T10:41:14.475Z,49.22
2019-01-04T10:42:14.481Z,47.80
2019-01-04T10:43:14.487Z,46.73
2019-01-04T10:44:14.496Z,45.22
2019-01-04T10:45:14.503Z,45.31
2019-01-04T10:46:14.505Z,46.94
2019-01-04T10:47:14.514Z,45.60
2019-01-04T10:48:14.519Z,45.67
2019-01-04T10:49:14.527Z,48.13
2019-01-04T10:50:14.534Z,48.50
2019-01-04T10:51:14.542Z,49.19
2019-01-04T10:52:14.548Z,48.63
2019-01-04T10:53:14.555Z,48.15
2019-01-04T10:54:14.560Z,48.25
2019-01-04T10:55:14.571Z,47.68
2019-01-04T10:56:14.579Z,48.18
2019-01-04T10:57:14.582Z,47.39
2019-01-04T10:58:14.590Z,47.75
2019-01-04T10:59:14.598Z,47.94
2019-01-04T11:00:14.608Z,48.50
2019-01-04T11:01:14.613Z,49.45
2019-01-04T11:02:14.618Z,50.96
2019-01-04T11:03:14.635Z,50.80
2019-01-04T11:04:14.635Z,49.31
2019-01-04T11:05:14.642Z,47.23
2019-01-04T11:06:14.647Z,47.42
2019-01-04T11:07:14.655Z,47.02
2019-01-04T11:08:14.662Z,46.64
2019-01-04T11:09:14.668Z,47.85
2019-01-04T11:10:14.678Z,48.50
2019-01-04T11:11:14.684Z,49.54
2019-01-04T11:12:15.948Z,49.92
2019-01-04T11:13:14.697Z,49.43
2019-01-04T11:14:14.706Z,50.09
2019-01-04T11:15:14.717Z,50.46
2019-01-04T11:16:14.724Z,50.94
2019-01-04T11:17:14.729Z,51.72
2019-01-04T11:18:14.735Z,52.10
2019-01-04T11:19:14.744Z,52.12
2019-01-04T11:20:14.753Z,50.14
2019-01-04T11:21:14.759Z,49.10
2019-01-04T11:22:14.765Z,49.29
2019-01-04T11:23:14.773Z,48.84
2019-01-04T11:24:14.785Z,47.58
2019-01-04T11:25:14.791Z,48.25
2019-01-04T11:26:14.795Z,47.68
2019-01-04T11:27:14.806Z,47.11
2019-01-04T11:28:14.812Z,47.68
2019-01-04T11:29:14.818Z,47.80
2019-01-04T11:30:14.828Z,46.94
2019-01-04T11:31:14.837Z,47.91
2019-01-04T11:32:14.842Z,46.12
2019-01-04T11:33:14.848Z,44.67
2019-01-04T11:34:14.858Z,45.43
2019-01-04T11:35:14.866Z,45.41
2019-01-04T11:36:14.873Z,47.39
2019-01-04T11:37:14.881Z,48.18
2019-01-04T11:38:14.890Z,48.55
2019-01-04T11:39:14.897Z,47.39
2019-01-04T11:40:14.906Z,48.53
2019-01-04T11:41:14.913Z,48.60
2019-01-04T11:42:14.923Z,47.30
2019-01-04T11:43:14.931Z,46.45
2019-01-04T11:44:14.936Z,47.02
2019-01-04T11:45:14.953Z,47.51
2019-01-04T11:46:14.957Z,47.32
2019-01-04T11:47:20.031Z,47.42
2019-01-04T11:48:14.972Z,46.85
2019-01-04T11:49:14.977Z,47.23
2019-01-04T11:50:14.987Z,46.83
2019-01-04T11:51:14.998Z,47.11
2019-01-04T11:52:15.004Z,47.49
2019-01-04T11:53:15.016Z,48.25
2019-01-04T11:54:15.020Z,48.15
2019-01-04T11:55:15.034Z,48.65
2019-01-04T11:56:15.037Z,47.96
2019-01-04T11:57:15.057Z,47.89
2019-01-04T11:58:15.053Z,48.25
2019-01-04T11:59:15.062Z,47.28
2019-01-04T12:00:15.070Z,47.96
2019-01-04T12:01:15.078Z,48.63
2019-01-04T12:02:15.089Z,48.74
2019-01-04T12:03:15.135Z,48.20
2019-01-04T12:04:15.112Z,46.40
2019-01-04T12:05:15.112Z,45.07
2019-01-04T12:06:15.122Z,45.53
2019-01-04T12:07:15.131Z,46.47
2019-01-04T12:08:15.140Z,46.19
2019-01-04T12:09:15.148Z,46.56
2019-01-04T12:10:15.155Z,45.72
2019-01-04T12:11:15.171Z,45.90
2019-01-04T12:12:15.173Z,46.45
2019-01-04T12:13:15.182Z,46.45
2019-01-04T12:14:15.190Z,47.87
2019-01-04T12:15:15.202Z,48.55
2019-01-04T12:16:15.209Z,48.84
2019-01-04T12:17:15.217Z,47.13
2019-01-04T12:18:15.227Z,45.90
2019-01-04T12:19:15.234Z,45.53
2019-01-04T12:20:15.244Z,45.55
2019-01-04T12:21:15.251Z,45.81
2019-01-04T12:22:15.260Z,45.81
2019-01-04T12:23:15.331Z,45.90
2019-01-04T12:24:15.278Z,46.92
2019-01-04T12:25:15.287Z,48.65
2019-01-04T12:26:15.296Z,48.36
2019-01-04T12:27:15.305Z,47.49
2019-01-04T12:28:15.316Z,47.58
2019-01-04T12:29:15.326Z,47.89
2019-01-04T12:30:15.333Z,48.01
2019-01-04T12:31:15.342Z,46.97
2019-01-04T12:32:15.353Z,46.66
2019-01-04T12:33:15.360Z,46.75
2019-01-04T12:34:16.749Z,47.34
2019-01-04T12:35:15.379Z,46.40
2019-01-04T12:36:15.392Z,45.93
2019-01-04T12:37:15.395Z,46.12
2019-01-04T12:38:15.405Z,46.23
2019-01-04T12:39:15.416Z,45.74
2019-01-04T12:40:15.425Z,45.26
2019-01-04T12:41:15.432Z,45.07
2019-01-04T12:42:15.446Z,45.45
2019-01-04T12:43:15.452Z,45.57
2019-01-04T12:44:15.463Z,45.95
2019-01-04T12:45:15.473Z,44.46
2019-01-04T12:46:15.484Z,43.20
2019-01-04T12:47:15.493Z,44.06
2019-01-04T12:48:15.502Z,43.56
2019-01-04T12:49:15.509Z,44.41
2019-01-04T12:50:15.521Z,45.15
2019-01-04T12:51:15.534Z,45.50
2019-01-04T12:52:15.539Z,46.45